KMCC/MCC METAR and TAF weather

Enter ICAO airport designator
Station Type Date Time Source
KMCC METAR 2020/04/03 22:35 UTC NOAA

KMCC 032235Z AUTO 30005KT 10SM CLR 19/00 A2997 RMK AO2


Station Type Date Time Source
KMCC Decoded METAR 2020/04/03 22:35 UTC NOAA

Sacramento, McClellan Airfield Airport, CA, United States (KMCC) 38-40N 121-24W
Apr 03, 2020 - 06:35 PM EDT / 2020.04.03 2235 UTC
Wind: from the WNW (300 degrees) at 6 MPH (5 KT):0
Visibility: 10 mile(s):0
Sky conditions: clear
Temperature: 66 F (19 C)
Dew Point: 32 F (0 C)
Relative Humidity: 27%
Pressure (altimeter): 29.97 in. Hg (1014 hPa)
ob: KMCC 032235Z AUTO 30005KT 10SM CLR 19/00 A2997 RMK AO2
cycle: 22

Station Type Date Time Source
KMCC TAF 2020/04/03 18:36 UTC NOAA

TAF KMCC 031732Z 0318/0418 VRB05KT P6SM SCT250
FM040600 16007KT P6SM BKN100
FM041600 15009KT P6SM -RA OVC025

Example: see airport list